Union Furnace, Ohio
Current Conditions -  °F | °C
As of 6:35 PM on Wednesday 22 Oct 2014 (Local Time) from KUNI Reporting Station
Overcast Overcast  
Wind Chill: 46°   Ceiling: 2300
Heat Index: 49°   Visibility: 10mi
Dew Point: 41°   Wind: 9mph
Humidity: 73%   Direction: 340°NNW
Pressure: 30.23"   Gusts: NA
Location:  39.46°N, 82.36°W
Report Text: KUNI 222235Z AUTO 34008KT 10SM OVC023 10/05 A3023 RMK AO2 T00970051
Loading
Personal Weather Stations






























Interactive Weather Map
Tropical Storm Tracking
New forecast layout! Learn more

10-Day Weather Forecast

Advertisements
Track Severe Weather on mobile